createdAt,value
2023-04-19T00:00:08.736Z,88.59
2023-04-19T00:03:02.285Z,88.56
2023-04-19T00:05:34.686Z,88.55
2023-04-19T00:08:07.440Z,88.63
2023-04-19T00:10:40.084Z,88.70
2023-04-19T00:13:12.708Z,88.46
2023-04-19T00:15:45.007Z,88.72
2023-04-19T00:18:17.241Z,88.71
2023-04-19T00:20:50.238Z,88.76
2023-04-19T00:23:22.699Z,88.69
2023-04-19T00:25:54.777Z,88.89
2023-04-19T00:28:27.771Z,88.71
2023-04-19T00:30:59.898Z,88.73
2023-04-19T00:33:35.420Z,88.97
2023-04-19T00:36:08.116Z,88.96
2023-04-19T00:38:40.150Z,88.99
2023-04-19T00:41:12.303Z,89.05
2023-04-19T00:43:44.401Z,89.16
2023-04-19T00:46:17.041Z,89.07
2023-04-19T00:48:51.725Z,89.02
2023-04-19T00:51:23.890Z,89.17
2023-04-19T00:53:56.363Z,89.18
2023-04-19T00:56:36.142Z,89.29
2023-04-19T00:59:09.997Z,89.22
2023-04-19T01:01:42.793Z,89.28
2023-04-19T01:04:15.165Z,89.42
2023-04-19T01:06:48.017Z,89.54
2023-04-19T01:09:20.110Z,89.47
2023-04-19T01:11:54.229Z,89.63
2023-04-19T01:14:26.253Z,89.75
2023-04-19T01:16:59.712Z,90.06
2023-04-19T01:19:32.131Z,90.31
2023-04-19T01:22:04.303Z,90.51
2023-04-19T01:24:36.919Z,90.70
2023-04-19T01:27:08.997Z,90.89
2023-04-19T01:29:41.302Z,91.03
2023-04-19T01:32:14.141Z,91.12
2023-04-19T01:34:46.245Z,91.33
2023-04-19T01:37:20.474Z,91.31
2023-04-19T01:39:52.557Z,91.42
2023-04-19T01:42:24.766Z,91.55
2023-04-19T01:44:57.842Z,91.87
2023-04-19T01:47:31.497Z,91.80
2023-04-19T01:50:03.625Z,92.30
2023-04-19T01:52:35.703Z,92.29
2023-04-19T01:55:08.482Z,92.67
2023-04-19T01:57:40.956Z,92.88
2023-04-19T02:00:15.293Z,93.11
2023-04-19T02:02:47.587Z,92.88
2023-04-19T02:05:21.111Z,93.03
2023-04-19T02:07:53.990Z,93.18
2023-04-19T02:10:26.579Z,93.27
2023-04-19T02:12:58.705Z,93.40
2023-04-19T02:15:33.797Z,94.07
2023-04-19T02:18:06.997Z,93.54
2023-04-19T02:20:39.379Z,93.73
2023-04-19T02:23:11.431Z,93.88
2023-04-19T02:25:44.315Z,93.94
2023-04-19T02:28:16.313Z,94.10
2023-04-19T02:30:48.521Z,94.19
2023-04-19T02:33:24.947Z,94.37
2023-04-19T02:35:57.086Z,94.56
2023-04-19T02:38:29.094Z,94.53
2023-04-19T02:41:01.822Z,94.77
2023-04-19T02:43:34.845Z,95.12
2023-04-19T02:46:07.189Z,94.98
2023-04-19T02:48:39.224Z,95.41
2023-04-19T02:51:15.720Z,95.63
2023-04-19T02:53:48.329Z,95.78
2023-04-19T02:56:20.447Z,97.03
2023-04-19T02:58:54.559Z,96.58
2023-04-19T03:01:26.827Z,96.96
2023-04-19T03:04:02.145Z,96.64
2023-04-19T03:06:34.772Z,97.04
2023-04-19T03:09:07.218Z,97.06
2023-04-19T03:11:39.411Z,97.57
2023-04-19T03:14:11.702Z,97.36
2023-04-19T03:16:43.842Z,97.44
2023-04-19T03:19:16.038Z,97.16
2023-04-19T03:21:55.747Z,97.44
2023-04-19T03:24:32.041Z,97.98
2023-04-19T03:27:10.213Z,97.51
2023-04-19T03:29:44.283Z,97.91
2023-04-19T03:32:17.361Z,97.29
2023-04-19T03:34:49.522Z,97.38
2023-04-19T03:37:23.141Z,97.66
2023-04-19T03:39:55.495Z,98.14
2023-04-19T03:42:32.551Z,97.99
2023-04-19T03:45:13.128Z,97.88
2023-04-19T03:47:51.490Z,98.48
2023-04-19T03:50:23.752Z,98.21
2023-04-19T03:52:56.640Z,98.64
2023-04-19T03:55:28.878Z,98.88
2023-04-19T03:58:01.365Z,99.35
2023-04-19T04:00:56.255Z,98.83
2023-04-19T04:03:29.139Z,99.40
2023-04-19T04:06:02.118Z,99.11
2023-04-19T04:08:36.489Z,98.68
2023-04-19T04:11:08.719Z,98.97
2023-04-19T04:13:41.166Z,98.59
2023-04-19T04:16:18.037Z,98.76
2023-04-19T04:18:50.409Z,98.61
2023-04-19T04:21:24.312Z,98.81
2023-04-19T04:23:57.552Z,98.96
2023-04-19T04:26:39.560Z,98.85
2023-04-19T04:29:38.152Z,98.83
2023-04-19T04:32:11.496Z,98.66
2023-04-19T04:34:45.693Z,98.65
2023-04-19T04:37:22.809Z,98.66
2023-04-19T04:39:55.095Z,98.82
2023-04-19T04:42:27.897Z,98.25
2023-04-19T04:45:01.753Z,98.45
2023-04-19T04:47:35.863Z,98.60
2023-04-19T04:50:12.670Z,98.34
2023-04-19T04:52:44.699Z,98.45
2023-04-19T04:55:22.353Z,98.43
2023-04-19T04:57:54.457Z,98.32
2023-04-19T05:00:32.575Z,98.21
2023-04-19T05:03:09.785Z,97.99
2023-04-19T05:05:47.590Z,98.35
2023-04-19T05:08:19.805Z,98.13
2023-04-19T05:10:52.632Z,98.03
2023-04-19T05:13:26.327Z,98.30
2023-04-19T05:16:00.002Z,98.40
2023-04-19T05:18:32.724Z,98.28
2023-04-19T05:21:06.951Z,98.26
2023-04-19T05:23:39.872Z,98.33
2023-04-19T05:26:15.463Z,98.22
2023-04-19T05:28:48.267Z,98.05
2023-04-19T05:31:34.472Z,98.13
2023-04-19T05:34:27.087Z,98.18
2023-04-19T05:37:00.586Z,98.27
2023-04-19T05:39:32.743Z,98.16
2023-04-19T05:42:05.090Z,98.15
2023-04-19T05:44:37.274Z,98.24
2023-04-19T05:47:10.054Z,98.22
2023-04-19T05:50:00.930Z,98.48
2023-04-19T05:52:37.258Z,98.51
2023-04-19T05:55:15.622Z,98.53
2023-04-19T05:57:49.670Z,98.64
2023-04-19T06:00:24.232Z,98.84
2023-04-19T06:03:00.578Z,98.75
2023-04-19T06:05:33.149Z,98.73
2023-04-19T06:08:05.677Z,98.54
2023-04-19T06:10:51.837Z,98.67
2023-04-19T06:13:27.681Z,98.66
2023-04-19T06:16:00.399Z,98.84
2023-04-19T06:18:32.741Z,98.69
2023-04-19T06:21:06.455Z,98.88
2023-04-19T06:23:38.674Z,98.99
2023-04-19T06:26:14.352Z,99.26
2023-04-19T06:28:46.405Z,99.07
2023-04-19T06:31:18.565Z,99.03
2023-04-19T06:33:50.892Z,98.89
2023-04-19T06:36:23.286Z,98.62
2023-04-19T06:42:42.702Z,98.46
2023-04-19T06:45:17.290Z,98.50
2023-04-19T06:52:11.237Z,98.90
2023-04-19T06:54:43.331Z,99.20
2023-04-19T07:01:52.010Z,99.24
2023-04-19T07:04:30.486Z,99.11
2023-04-19T07:07:48.937Z,99.12
2023-04-19T07:11:02.015Z,99.19
2023-04-19T07:18:45.345Z,99.46
2023-04-19T07:21:19.236Z,99.59
2023-04-19T07:23:51.466Z,99.47
2023-04-19T07:26:30.168Z,99.44
2023-04-19T07:33:33.093Z,99.79
2023-04-19T07:36:12.679Z,99.84
2023-04-19T07:38:44.866Z,99.67
2023-04-19T07:41:51.270Z,99.90
2023-04-19T07:44:23.609Z,99.91
2023-04-19T07:51:29.835Z,100.00
2023-04-19T07:54:10.688Z,100.00
2023-04-19T08:02:01.356Z,100.00
2023-04-19T08:04:35.764Z,100.00
2023-04-19T08:15:03.785Z,100.00
2023-04-19T08:22:22.613Z,100.00
2023-04-19T08:29:06.142Z,100.00
2023-04-19T08:32:21.936Z,100.00
2023-04-19T08:35:01.135Z,100.00
2023-04-19T08:37:33.415Z,100.00
2023-04-19T08:41:01.792Z,100.00
2023-04-19T08:52:51.854Z,100.00
2023-04-19T08:56:24.058Z,100.00
2023-04-19T09:00:02.792Z,100.00
2023-04-19T09:06:39.116Z,100.00
2023-04-19T09:12:31.868Z,100.00
2023-04-19T09:15:11.883Z,100.00
2023-04-19T09:22:16.614Z,100.00
2023-04-19T09:28:16.793Z,100.00
2023-04-19T09:31:02.298Z,100.00
2023-04-19T09:38:01.372Z,100.00
2023-04-19T09:52:23.989Z,100.00
2023-04-19T09:55:11.392Z,100.00
2023-04-19T09:57:50.493Z,100.00
2023-04-19T10:00:41.788Z,100.00
2023-04-19T10:04:50.453Z,100.00
2023-04-19T10:07:31.016Z,100.00
2023-04-19T10:14:33.374Z,100.00
2023-04-19T10:17:39.297Z,100.00
2023-04-19T10:36:18.728Z,100.00
2023-04-19T10:39:54.495Z,100.00
2023-04-19T10:47:09.586Z,100.00
2023-04-19T10:54:50.991Z,100.00
2023-04-19T10:57:28.127Z,100.00
2023-04-19T11:00:21.927Z,100.00
2023-04-19T11:03:01.344Z,100.00
2023-04-19T11:13:50.088Z,100.00
2023-04-19T11:16:31.136Z,100.00
2023-04-19T11:19:30.060Z,100.00
2023-04-19T11:22:02.600Z,100.00
2023-04-19T11:24:36.200Z,100.00
2023-04-19T11:39:41.181Z,100.00
2023-04-19T11:46:33.209Z,100.00
2023-04-19T11:57:45.006Z,100.00
2023-04-19T12:00:34.838Z,100.00
2023-04-19T12:03:08.930Z,100.00
2023-04-19T12:05:41.737Z,100.00
2023-04-19T12:17:35.321Z,100.00
2023-04-19T12:20:12.446Z,100.00
2023-04-19T12:23:23.434Z,100.00
2023-04-19T12:29:50.962Z,100.00
2023-04-19T12:32:23.176Z,100.00
2023-04-19T12:43:38.820Z,100.00
2023-04-19T12:46:11.156Z,100.00
2023-04-19T12:56:26.853Z,100.00
2023-04-19T12:58:59.003Z,100.00
2023-04-19T13:05:56.578Z,100.00
2023-04-19T13:08:44.228Z,100.00
2023-04-19T13:11:23.487Z,100.00
2023-04-19T13:15:08.149Z,100.00
2023-04-19T13:17:46.956Z,100.00
2023-04-19T13:20:45.471Z,100.00
2023-04-19T13:30:59.228Z,100.00
2023-04-19T13:33:54.113Z,100.00
2023-04-19T13:36:26.228Z,100.00
2023-04-19T13:39:20.901Z,100.00
2023-04-19T13:45:40.595Z,100.00
2023-04-19T13:48:13.171Z,100.00
2023-04-19T13:55:18.076Z,99.91
2023-04-19T14:02:23.114Z,100.00
2023-04-19T14:05:01.849Z,100.00
2023-04-19T14:15:56.674Z,99.99
2023-04-19T14:19:07.948Z,100.00
2023-04-19T14:21:40.012Z,99.91
2023-04-19T14:28:45.083Z,99.96
2023-04-19T14:35:49.159Z,100.00
2023-04-19T14:38:21.239Z,100.00
2023-04-19T14:40:53.424Z,100.00
2023-04-19T14:43:26.254Z,100.00
2023-04-19T14:51:03.755Z,100.00
2023-04-19T14:53:36.035Z,100.00
2023-04-19T14:56:18.154Z,100.00
2023-04-19T14:59:35.322Z,100.00
2023-04-19T15:02:14.282Z,100.00
2023-04-19T15:04:46.600Z,100.00
2023-04-19T15:07:18.824Z,100.00
2023-04-19T15:09:50.809Z,100.00
2023-04-19T15:12:22.865Z,100.00
2023-04-19T15:14:54.883Z,100.00
2023-04-19T15:17:26.968Z,100.00
2023-04-19T15:19:59.766Z,100.00
2023-04-19T15:22:31.918Z,100.00
2023-04-19T15:25:04.800Z,100.00
2023-04-19T15:27:36.805Z,100.00
2023-04-19T15:30:12.456Z,100.00
2023-04-19T15:32:44.890Z,100.00
2023-04-19T15:35:17.042Z,100.00
2023-04-19T15:37:50.092Z,100.00
2023-04-19T15:40:24.512Z,100.00
2023-04-19T15:42:56.748Z,100.00
2023-04-19T15:45:29.919Z,100.00
2023-04-19T15:48:02.117Z,100.00
2023-04-19T15:50:34.312Z,100.00
2023-04-19T15:53:08.920Z,100.00
2023-04-19T15:55:41.836Z,100.00
2023-04-19T15:58:13.889Z,100.00
2023-04-19T16:00:45.989Z,100.00
2023-04-19T16:03:18.162Z,100.00
2023-04-19T16:05:53.919Z,100.00
2023-04-19T16:08:26.182Z,100.00
2023-04-19T16:10:58.357Z,100.00
2023-04-19T16:13:31.564Z,100.00
2023-04-19T16:16:04.016Z,100.00
2023-04-19T16:18:36.212Z,100.00
2023-04-19T16:21:08.772Z,100.00
2023-04-19T16:23:42.070Z,100.00
2023-04-19T16:26:14.430Z,100.00
2023-04-19T16:28:46.518Z,100.00
2023-04-19T16:31:19.312Z,100.00
2023-04-19T16:33:51.391Z,100.00
2023-04-19T16:36:23.520Z,100.00
2023-04-19T16:38:56.013Z,100.00
2023-04-19T16:41:28.219Z,100.00
2023-04-19T16:44:00.270Z,100.00
2023-04-19T16:46:32.528Z,100.00
2023-04-19T16:52:11.720Z,100.00
2023-04-19T16:54:44.809Z,100.00
2023-04-19T16:57:16.953Z,100.00
2023-04-19T16:59:49.141Z,100.00
2023-04-19T17:02:21.739Z,100.00
2023-04-19T17:04:53.976Z,100.00
2023-04-19T17:07:26.729Z,100.00
2023-04-19T17:09:58.999Z,100.00
2023-04-19T17:12:31.123Z,100.00
2023-04-19T17:15:03.358Z,100.00
2023-04-19T17:17:35.636Z,100.00
2023-04-19T17:20:10.037Z,100.00
2023-04-19T17:22:42.497Z,100.00
2023-04-19T17:25:14.557Z,100.00
2023-04-19T17:27:46.815Z,100.00
2023-04-19T17:30:19.063Z,100.00
2023-04-19T17:32:51.670Z,100.00
2023-04-19T17:35:23.962Z,100.00
2023-04-19T17:37:56.079Z,100.00
2023-04-19T17:40:29.424Z,100.00
2023-04-19T17:43:02.097Z,100.00
2023-04-19T17:45:34.245Z,100.00
2023-04-19T17:48:07.109Z,100.00
2023-04-19T17:50:39.485Z,100.00
2023-04-19T17:53:11.695Z,100.00
2023-04-19T17:55:43.970Z,100.00
2023-04-19T17:58:16.362Z,100.00
2023-04-19T18:00:48.986Z,100.00
2023-04-19T18:03:21.156Z,100.00
2023-04-19T18:05:53.449Z,100.00
2023-04-19T18:08:25.672Z,100.00
2023-04-19T18:10:57.759Z,100.00
2023-04-19T18:13:30.794Z,100.00
2023-04-19T18:16:05.110Z,100.00
2023-04-19T18:18:37.237Z,100.00
2023-04-19T18:21:09.793Z,100.00
2023-04-19T18:23:41.939Z,100.00
2023-04-19T18:26:14.311Z,100.00
2023-04-19T18:28:46.731Z,100.00
2023-04-19T18:31:18.794Z,100.00
2023-04-19T18:33:51.156Z,100.00
2023-04-19T18:36:23.970Z,100.00
2023-04-19T18:38:56.168Z,100.00
2023-04-19T18:41:31.682Z,100.00
2023-04-19T18:46:38.719Z,100.00
2023-04-19T18:49:12.978Z,100.00
2023-04-19T18:51:45.205Z,100.00
2023-04-19T18:57:23.506Z,100.00
2023-04-19T18:59:59.616Z,100.00
2023-04-19T19:02:34.117Z,100.00
2023-04-19T19:05:08.554Z,100.00
2023-04-19T19:07:41.795Z,100.00
2023-04-19T19:10:19.398Z,100.00
2023-04-19T19:12:53.689Z,100.00
2023-04-19T19:15:25.976Z,100.00
2023-04-19T19:17:58.024Z,100.00
2023-04-19T19:20:31.084Z,100.00
2023-04-19T19:23:03.346Z,100.00
2023-04-19T19:25:35.520Z,100.00
2023-04-19T19:28:10.041Z,100.00
2023-04-19T19:30:44.980Z,100.00
2023-04-19T19:33:18.103Z,100.00
2023-04-19T19:35:50.162Z,100.00
2023-04-19T19:38:22.249Z,100.00
2023-04-19T19:41:34.656Z,100.00
2023-04-19T19:43:46.374Z,100.00
2023-04-19T19:46:18.620Z,100.00
2023-04-19T19:48:53.472Z,100.00
2023-04-19T19:51:53.197Z,100.00
2023-04-19T19:54:21.164Z,100.00
2023-04-19T19:57:39.121Z,100.00
2023-04-19T19:59:51.363Z,100.00
2023-04-19T20:02:25.024Z,100.00
2023-04-19T20:04:57.437Z,100.00
2023-04-19T20:07:53.453Z,100.00
2023-04-19T20:10:21.697Z,100.00
2023-04-19T20:15:30.200Z,100.00
2023-04-19T20:18:02.400Z,100.00
2023-04-19T20:20:34.442Z,100.00
2023-04-19T20:23:06.784Z,100.00
2023-04-19T20:25:39.722Z,100.00
2023-04-19T20:28:12.718Z,100.00
2023-04-19T20:30:44.851Z,100.00
2023-04-19T20:33:17.085Z,100.00
2023-04-19T20:35:53.638Z,100.00
2023-04-19T20:38:26.658Z,100.00
2023-04-19T20:41:00.588Z,100.00
2023-04-19T20:43:32.974Z,100.00
2023-04-19T20:46:07.354Z,100.00
2023-04-19T20:48:39.475Z,100.00
2023-04-19T20:51:12.774Z,100.00
2023-04-19T20:53:44.839Z,100.00
2023-04-19T20:56:16.909Z,100.00
2023-04-19T20:58:48.970Z,100.00
2023-04-19T21:01:23.801Z,100.00
2023-04-19T21:03:56.774Z,100.00
2023-04-19T21:06:29.001Z,100.00
2023-04-19T21:09:01.130Z,100.00
2023-04-19T21:11:33.198Z,100.00
2023-04-19T21:14:05.305Z,100.00
2023-04-19T21:16:37.957Z,100.00
2023-04-19T21:19:10.182Z,100.00
2023-04-19T21:21:42.198Z,100.00
2023-04-19T21:24:14.306Z,100.00
2023-04-19T21:26:46.445Z,100.00
2023-04-19T21:29:18.910Z,100.00
2023-04-19T21:31:51.344Z,100.00
2023-04-19T21:34:24.094Z,100.00
2023-04-19T21:36:56.140Z,100.00
2023-04-19T21:39:28.301Z,100.00
2023-04-19T21:42:00.433Z,100.00
2023-04-19T21:44:32.532Z,100.00
2023-04-19T21:47:04.768Z,100.00
2023-04-19T21:49:37.148Z,100.00
2023-04-19T21:52:11.359Z,100.00
2023-04-19T21:54:43.461Z,100.00
2023-04-19T21:57:17.604Z,100.00
2023-04-19T21:59:53.103Z,100.00
2023-04-19T22:02:25.342Z,100.00
2023-04-19T22:05:00.381Z,100.00
2023-04-19T22:07:32.505Z,100.00
2023-04-19T22:10:05.894Z,100.00
2023-04-19T22:12:48.057Z,100.00
2023-04-19T22:15:28.049Z,100.00
2023-04-19T22:18:03.418Z,100.00
2023-04-19T22:20:36.015Z,100.00
2023-04-19T22:23:08.459Z,100.00
2023-04-19T22:25:41.144Z,100.00
2023-04-19T22:28:13.400Z,100.00
2023-04-19T22:30:45.635Z,100.00
2023-04-19T22:33:17.733Z,100.00
2023-04-19T22:35:49.948Z,100.00
2023-04-19T22:38:25.013Z,100.00
2023-04-19T22:40:57.381Z,100.00
2023-04-19T22:43:29.438Z,100.00
2023-04-19T22:46:01.718Z,100.00
2023-04-19T22:48:35.045Z,100.00
2023-04-19T22:51:07.516Z,100.00
2023-04-19T22:53:40.791Z,100.00
2023-04-19T22:56:13.214Z,100.00
2023-04-19T22:58:45.317Z,100.00
2023-04-19T23:01:17.672Z,100.00
2023-04-19T23:03:49.764Z,100.00
2023-04-19T23:06:21.773Z,100.00
2023-04-19T23:08:54.709Z,100.00
2023-04-19T23:11:29.885Z,100.00
2023-04-19T23:14:02.062Z,100.00
2023-04-19T23:16:34.546Z,100.00
2023-04-19T23:19:07.754Z,100.00
2023-04-19T23:21:40.525Z,100.00
2023-04-19T23:24:12.780Z,100.00
2023-04-19T23:26:44.809Z,100.00
2023-04-19T23:29:18.694Z,100.00
2023-04-19T23:31:52.642Z,100.00
2023-04-19T23:34:25.039Z,100.00
2023-04-19T23:36:57.613Z,100.00
2023-04-19T23:39:29.721Z,100.00
2023-04-19T23:42:02.217Z,100.00
2023-04-19T23:44:34.244Z,100.00
2023-04-19T23:47:06.473Z,100.00
2023-04-19T23:49:38.603Z,100.00
2023-04-19T23:52:11.567Z,100.00
2023-04-19T23:54:44.005Z,100.00
2023-04-19T23:57:16.203Z,100.00
2023-04-19T23:59:48.368Z,100.00
